Time;durP1;ratioP1;P1;durP2;ratioP2;P2;SDS_P1;SDS_P2;PMS_P1;PMS_P2;Temp;Humidity;BMP_temperature;BMP_pressure;BME280_temperature;BME280_humidity;BME280_pressure;Samples;Min_cycle;Max_cycle;Signal;HPM_P1;HPM_P2
2021/12/14 00:00:32;;;;;;;60.23;38.10;;;;;;;8.38;24.20;102315.41;4993609;28;20437;-45
2021/12/14 00:03:00;;;;;;;62.90;39.07;;;;;;;8.41;23.91;102314.28;4993031;28;20519;-44
2021/12/14 00:05:31;;;;;;;63.30;37.47;;;;;;;8.41;25.69;102312.47;4993663;28;20518;-44
2021/12/14 00:08:02;;;;;;;65.83;39.83;;;;;;;8.39;26.41;102298.47;4993245;28;20435;-44
2021/12/14 00:11:11;;;;;;;61.83;38.20;;;;;;;8.39;27.49;102302.94;4993217;28;20524;-46
2021/12/14 00:13:56;;;;;;;60.90;39.20;;;;;;;8.37;28.41;102304.91;4992558;28;21011;-45
2021/12/14 00:16:25;;;;;;;59.23;36.37;;;;;;;8.35;29.07;102310.38;4993298;28;20422;-43
2021/12/14 00:18:52;;;;;;;59.50;39.40;;;;;;;8.34;30.42;102311.34;4993430;28;20462;-45
2021/12/14 00:21:28;;;;;;;58.60;38.77;;;;;;;8.32;31.10;102308.00;4993415;28;20440;-44
2021/12/14 00:24:06;;;;;;;62.67;37.20;;;;;;;8.31;32.14;102306.31;4992362;28;20476;-44
2021/12/14 00:26:35;;;;;;;64.63;38.43;;;;;;;8.24;34.23;102299.88;4993252;28;20436;-43
2021/12/14 00:29:04;;;;;;;49.27;34.63;;;;;;;8.27;33.88;102300.44;4992916;28;20484;-43
2021/12/14 00:31:36;;;;;;;50.70;36.70;;;;;;;8.25;35.47;102307.69;4993157;28;20816;-46
2021/12/14 00:34:07;;;;;;;48.77;33.43;;;;;;;8.24;35.71;102310.50;4992411;28;20489;-44
2021/12/14 00:36:36;;;;;;;44.50;31.73;;;;;;;8.20;37.34;102298.47;4993118;28;20426;-49
2021/12/14 00:39:08;;;;;;;45.60;33.43;;;;;;;8.22;37.30;102302.66;4992710;28;20837;-45
2021/12/14 00:41:39;;;;;;;50.30;33.30;;;;;;;8.21;38.63;102306.28;4985279;28;20427;-43
2021/12/14 00:44:08;;;;;;;42.90;31.80;;;;;;;8.19;39.77;102315.41;4992314;28;20484;-44
2021/12/14 00:46:38;;;;;;;46.57;32.97;;;;;;;8.19;39.67;102318.06;4992958;28;20422;-47
2021/12/14 00:49:09;;;;;;;45.30;32.57;;;;;;;8.17;41.18;102326.19;4992896;28;20455;-43
2021/12/14 00:51:37;;;;;;;41.83;31.10;;;;;;;8.16;41.23;102321.00;4992767;28;20861;-45
2021/12/14 00:54:07;;;;;;;43.80;33.33;;;;;;;8.12;42.06;102312.47;4991890;28;20468;-49
2021/12/14 00:56:35;;;;;;;45.63;31.90;;;;;;;8.13;41.02;102306.19;4992952;28;20489;-44
2021/12/14 00:59:06;;;;;;;48.67;34.50;;;;;;;8.17;41.51;102310.25;4992795;28;20458;-46
2021/12/14 01:01:41;;;;;;;43.87;31.73;;;;;;;8.15;42.93;102301.56;4992762;28;20933;-46
2021/12/14 01:04:14;;;;;;;44.17;33.30;;;;;;;8.18;42.91;102293.28;4991951;28;20466;-48
2021/12/14 01:06:45;;;;;;;44.37;32.97;;;;;;;8.19;43.90;102296.78;4991599;28;20426;-46
2021/12/14 01:09:14;;;;;;;40.70;32.70;;;;;;;8.17;44.47;102294.31;4992381;28;20477;-45
2021/12/14 01:11:46;;;;;;;39.40;31.77;;;;;;;8.17;44.82;102290.81;5015726;23;20509;-45
2021/12/14 01:14:28;;;;;;;44.90;31.73;;;;;;;8.19;45.03;102299.47;4991987;28;20469;-44
2021/12/14 01:17:10;;;;;;;44.00;31.10;;;;;;;8.18;45.49;102311.91;4992401;28;20919;-43
2021/12/14 01:19:41;;;;;;;41.87;30.60;;;;;;;8.19;46.37;102300.28;4992755;28;20808;-43
2021/12/14 01:22:31;;;;;;;40.30;28.40;;;;;;;8.20;46.45;102296.66;4992447;28;20447;-46
2021/12/14 01:25:08;;;;;;;37.57;30.33;;;;;;;8.21;47.38;102285.03;4991951;28;21159;-44
2021/12/14 01:27:41;;;;;;;34.40;29.10;;;;;;;8.21;48.08;102286.88;4992367;28;20430;-46
2021/12/14 01:30:22;;;;;;;40.53;29.57;;;;;;;8.18;49.10;102287.97;4992272;28;20946;-44
2021/12/14 01:32:53;;;;;;;41.90;30.47;;;;;;;8.15;49.74;102280.28;4991704;28;20473;-47
2021/12/14 01:35:28;;;;;;;40.57;28.90;;;;;;;8.15;49.51;102276.81;4992390;28;20430;-44
2021/12/14 01:38:16;;;;;;;33.83;26.93;;;;;;;8.15;49.98;102274.97;4992367;28;20429;-44
2021/12/14 01:40:55;;;;;;;36.60;28.13;;;;;;;8.14;50.72;102257.38;4985958;28;20456;-44
2021/12/14 01:43:29;;;;;;;31.37;25.60;;;;;;;8.14;50.61;102261.84;4991649;28;20985;-41
2021/12/14 01:46:00;;;;;;;36.47;27.10;;;;;;;8.12;51.90;102259.31;4992173;28;20433;-44
2021/12/14 01:48:30;;;;;;;30.50;26.93;;;;;;;8.12;52.17;102258.50;4992237;28;20496;-42
2021/12/14 01:51:00;;;;;;;32.43;27.67;;;;;;;8.10;53.58;102253.31;4992125;28;20457;-42
2021/12/14 01:53:28;;;;;;;32.67;26.17;;;;;;;8.12;53.40;102245.22;4991561;28;20472;-41
2021/12/14 01:55:59;;;;;;;41.77;28.43;;;;;;;8.07;54.54;102245.66;4992223;28;20934;-43
2021/12/14 01:58:39;;;;;;;32.27;25.80;;;;;;;8.08;54.69;102244.66;4992350;28;20773;-41
2021/12/14 02:01:12;;;;;;;40.40;27.27;;;;;;;8.07;55.12;102240.31;4992253;28;20450;-45
2021/12/14 02:03:50;;;;;;;39.47;27.80;;;;;;;8.05;55.37;102237.00;4991627;28;20520;-43
2021/12/14 02:06:21;;;;;;;30.47;24.20;;;;;;;8.04;55.79;102223.84;4992136;28;20431;-40
2021/12/14 02:08:55;;;;;;;35.30;25.03;;;;;;;8.03;56.31;102232.81;4991987;28;20442;-43
2021/12/14 02:11:25;;;;;;;30.97;25.67;;;;;;;8.03;56.89;102227.50;4991965;28;20489;-41
2021/12/14 02:13:55;;;;;;;28.50;25.23;;;;;;;8.01;56.73;102222.31;4991551;28;20454;-43
2021/12/14 02:16:23;;;;;;;35.40;27.17;;;;;;;8.05;57.17;102233.50;4992104;28;20434;-42
2021/12/14 02:19:00;;;;;;;32.37;28.20;;;;;;;8.06;57.67;102221.91;4993745;28;20993;-41
2021/12/14 02:21:30;;;;;;;31.97;25.27;;;;;;;8.01;59.21;102202.88;4995410;28;20446;-41
2021/12/14 02:24:01;;;;;;;32.17;26.37;;;;;;;8.00;59.61;102207.38;4994879;28;20474;-41
2021/12/14 02:26:32;;;;;;;36.20;27.20;;;;;;;7.99;60.92;102213.66;4995855;28;20422;-43
2021/12/14 02:29:02;;;;;;;34.97;28.40;;;;;;;8.01;60.94;102210.84;4995551;28;20838;-42
2021/12/14 02:31:30;;;;;;;32.87;25.67;;;;;;;7.98;62.21;102208.47;4995251;28;20484;-43
2021/12/14 02:34:02;;;;;;;31.60;25.73;;;;;;;8.00;62.58;102203.88;4994433;28;20492;-41
2021/12/14 02:36:33;;;;;;;32.27;25.40;;;;;;;7.97;63.44;102191.72;4995527;28;20427;-41
2021/12/14 02:39:07;;;;;;;30.30;25.60;;;;;;;8.00;63.93;102188.78;4987894;28;20439;-46
2021/12/14 02:41:45;;;;;;;29.70;24.10;;;;;;;7.97;65.07;102189.06;4987452;28;20445;-44
2021/12/14 02:44:14;;;;;;;33.07;25.50;;;;;;;7.97;66.15;102188.22;4994529;28;20461;-45
2021/12/14 02:46:45;;;;;;;32.67;23.73;;;;;;;8.00;65.33;102195.91;4994935;28;20440;-41
2021/12/14 02:49:16;;;;;;;28.07;24.20;;;;;;;7.95;67.03;102193.66;4995231;28;20445;-44
2021/12/14 02:51:49;;;;;;;27.87;24.03;;;;;;;7.97;67.44;102189.06;4994995;28;20478;-42
2021/12/14 02:54:25;;;;;;;28.33;24.97;;;;;;;7.99;67.24;102194.22;4994326;28;20458;-41
2021/12/14 02:56:56;;;;;;;30.87;25.47;;;;;;;7.99;67.30;102204.84;4994846;28;20827;-42
2021/12/14 02:59:26;;;;;;;37.10;26.40;;;;;;;7.98;66.12;102209.31;4995085;28;20446;-46
2021/12/14 03:01:57;;;;;;;32.80;27.90;;;;;;;7.97;65.25;102205.00;4994903;28;20781;-44
2021/12/14 03:04:25;;;;;;;35.90;28.10;;;;;;;7.90;60.73;102201.22;4994203;28;20524;-44
2021/12/14 03:06:57;;;;;;;39.53;28.90;;;;;;;7.87;59.29;102200.69;4994753;28;20430;-45
2021/12/14 03:09:38;;;;;;;37.03;31.50;;;;;;;7.87;56.75;102192.72;4994641;28;20434;-42
2021/12/14 03:12:11;;;;;;;41.33;30.57;;;;;;;7.86;54.91;102191.88;4994369;28;20485;-45
2021/12/14 03:14:49;;;;;;;44.17;31.03;;;;;;;7.86;53.48;102189.22;4993997;28;20464;-41
2021/12/14 03:17:17;;;;;;;41.50;31.73;;;;;;;7.82;52.66;102193.16;4994696;28;20430;-45
2021/12/14 03:19:53;;;;;;;42.60;30.13;;;;;;;7.84;50.51;102182.38;4994388;28;20959;-45
2021/12/14 03:22:28;;;;;;;45.50;33.50;;;;;;;7.82;49.76;102187.00;4994677;28;20422;-46
2021/12/14 03:24:56;;;;;;;45.50;34.20;;;;;;;7.80;48.88;102173.84;4993947;28;20495;-45
2021/12/14 03:27:23;;;;;;;44.33;33.60;;;;;;;7.77;47.81;102171.47;4994443;28;20430;-44
2021/12/14 03:29:52;;;;;;;46.80;34.03;;;;;;;7.74;45.35;102172.59;4993403;28;20438;-45
2021/12/14 03:32:20;;;;;;;50.20;34.93;;;;;;;7.76;44.13;102161.84;4994076;28;20516;-44
2021/12/14 03:34:48;;;;;;;46.33;34.50;;;;;;;7.75;43.60;102165.47;4993505;28;20826;-44
2021/12/14 03:37:22;;;;;;;46.73;35.50;;;;;;;7.73;43.00;102167.47;4994345;28;20456;-45
2021/12/14 03:39:58;;;;;;;44.43;33.23;;;;;;;7.73;42.24;102154.19;4994086;28;20448;-46
2021/12/14 03:42:35;;;;;;;43.13;31.97;;;;;;;7.72;41.66;102147.19;4994033;28;20426;-44
2021/12/14 03:45:05;;;;;;;41.93;33.20;;;;;;;7.68;41.32;102151.09;4993538;28;20469;-44
2021/12/14 03:47:36;;;;;;;44.57;35.03;;;;;;;7.69;40.29;102152.78;4994217;28;20431;-46
2021/12/14 03:50:10;;;;;;;47.33;35.27;;;;;;;7.69;39.40;102150.97;4993948;28;21022;-49
2021/12/14 03:52:40;;;;;;;47.93;34.30;;;;;;;7.69;39.61;102155.44;4993606;28;21012;-48
2021/12/14 03:55:14;;;;;;;52.80;34.80;;;;;;;7.68;39.54;102169.69;4993660;28;20450;-48
2021/12/14 03:57:42;;;;;;;47.53;33.73;;;;;;;7.71;38.86;102169.41;4994129;28;20434;-50
2021/12/14 04:00:15;;;;;;;40.40;31.90;;;;;;;7.74;39.10;102155.84;4994051;28;20441;-50
2021/12/14 04:02:43;;;;;;;56.60;34.37;;;;;;;7.72;40.73;102147.19;4992935;28;20433;-45
2021/12/14 04:05:12;;;;;;;47.70;33.10;;;;;;;7.71;42.34;102156.13;4993368;28;20954;-48
2021/12/14 04:07:43;;;;;;;39.87;32.30;;;;;;;7.69;42.16;102158.94;4993322;28;20437;-49
2021/12/14 04:10:16;;;;;;;46.30;33.10;;;;;;;7.71;42.66;102156.13;4993816;28;20429;-43
2021/12/14 04:12:49;;;;;;;36.90;29.43;;;;;;;7.70;43.42;102151.81;4992843;28;20983;-44
2021/12/14 04:15:17;;;;;;;38.53;30.70;;;;;;;7.67;44.33;102157.41;4993716;28;20441;-46
2021/12/14 04:17:45;;;;;;;61.73;35.80;;;;;;;7.65;44.84;102152.22;4993555;28;20461;-43
2021/12/14 04:20:21;;;;;;;47.20;34.70;;;;;;;7.63;45.36;102151.53;4993303;28;20462;-44
2021/12/14 04:22:49;;;;;;;43.87;32.90;;;;;;;7.67;43.90;102152.09;4993018;28;20423;-44
2021/12/14 04:25:20;;;;;;;44.53;32.30;;;;;;;7.64;44.98;102147.06;4993218;28;20441;-45
2021/12/14 04:27:50;;;;;;;47.27;34.50;;;;;;;7.61;44.55;102156.16;4991620;28;20450;-44
2021/12/14 04:30:21;;;;;;;41.20;32.53;;;;;;;7.63;43.82;102148.88;4992729;28;20450;-48
2021/12/14 04:32:50;;;;;;;50.67;33.03;;;;;;;7.61;42.81;102152.66;4991838;28;20481;-45
2021/12/14 04:35:19;;;;;;;47.30;33.77;;;;;;;7.59;42.02;102149.31;4993157;28;20422;-45
2021/12/14 04:37:48;;;;;;;47.13;34.10;;;;;;;7.57;39.76;102146.81;4992980;28;20928;-43
2021/12/14 04:40:36;;;;;;;44.93;32.10;;;;;;;7.55;38.12;102156.75;4990740;28;20454;-43
2021/12/14 04:54:10;;;;;;;54.97;37.03;;;;;;;7.55;32.60;102139.97;4992176;28;20808;-43
2021/12/14 04:56:42;;;;;;;54.30;35.43;;;;;;;7.52;30.35;102137.59;4992873;28;20438;-43
2021/12/14 04:59:14;;;;;;;50.47;35.10;;;;;;;7.51;29.88;102138.56;4992715;28;20433;-46
2021/12/14 05:01:45;;;;;;;48.00;35.03;;;;;;;7.53;28.12;102132.13;4992610;28;20984;-43
2021/12/14 05:04:18;;;;;;;51.10;34.87;;;;;;;7.54;28.58;102139.13;4992121;28;20520;-48
2021/12/14 05:06:48;;;;;;;49.03;34.33;;;;;;;7.58;28.93;102134.38;4992899;28;20434;-44
2021/12/14 05:09:21;;;;;;;56.57;35.90;;;;;;;7.57;29.18;102138.00;4992750;28;20438;-45
2021/12/14 05:11:53;;;;;;;58.77;37.27;;;;;;;7.56;29.65;102138.97;4992465;28;20843;-46
2021/12/14 05:14:23;;;;;;;59.73;38.87;;;;;;;7.54;28.29;102140.94;4991630;28;20466;-44
2021/12/14 05:16:55;;;;;;;65.43;40.90;;;;;;;7.57;27.33;102136.19;4992409;28;20438;-43
2021/12/14 05:19:31;;;;;;;63.10;37.27;;;;;;;7.58;27.53;102126.41;4992651;28;20440;-43
2021/12/14 05:22:07;;;;;;;58.50;39.30;;;;;;;7.54;26.04;102132.97;4992339;28;20450;-44
2021/12/14 05:24:37;;;;;;;61.60;38.40;;;;;;;7.53;25.63;102134.78;4991916;28;20461;-43
2021/12/14 05:27:10;;;;;;;65.03;38.30;;;;;;;7.53;26.68;102147.22;4992369;28;20430;-43
2021/12/14 05:29:40;;;;;;;78.43;42.07;;;;;;;7.55;25.96;102139.97;4992521;28;20445;-46
2021/12/14 05:32:10;;;;;;;64.93;40.80;;;;;;;7.57;26.08;102145.97;4992355;28;20460;-46
2021/12/14 05:34:39;;;;;;;70.83;39.17;;;;;;;7.58;27.16;102145.84;4991661;28;20482;-45
2021/12/14 05:37:11;;;;;;;65.73;40.50;;;;;;;7.57;27.77;102143.31;4992231;28;21029;-46
2021/12/14 05:39:49;;;;;;;69.50;41.17;;;;;;;7.59;26.54;102151.97;4992723;28;20796;-43
2021/12/14 05:45:12;;;;;;;89.60;43.37;;;;;;;7.57;27.07;102157.41;4992035;28;20448;-44
2021/12/14 05:47:46;;;;;;;73.37;39.70;;;;;;;7.58;27.25;102153.78;4992143;28;20438;-44
2021/12/14 05:50:17;;;;;;;68.23;38.50;;;;;;;7.59;25.47;102157.25;4992301;28;20451;-45
2021/12/14 05:52:45;;;;;;;69.03;39.73;;;;;;;7.59;25.26;102159.91;4991712;28;20440;-47
2021/12/14 05:55:14;;;;;;;72.70;39.53;;;;;;;7.61;24.81;102150.00;4995910;28;20480;-43
2021/12/14 05:57:43;;;;;;;74.10;38.70;;;;;;;7.57;22.56;102145.97;4995910;28;20441;-47
2021/12/14 06:00:15;;;;;;;72.00;40.37;;;;;;;7.53;21.44;102150.72;4995673;28;20438;-42
2021/12/14 06:02:44;;;;;;;71.17;38.97;;;;;;;7.58;21.79;102153.78;4995591;28;20426;-42
2021/12/14 06:05:13;;;;;;;66.83;34.27;;;;;;;7.58;21.89;102151.16;4995775;28;20525;-42
2021/12/14 06:07:41;;;;;;;56.77;33.80;;;;;;;7.56;21.18;102150.44;4995730;28;20430;-44
2021/12/14 06:10:10;;;;;;;56.33;32.30;;;;;;;7.54;20.25;102144.44;4995504;28;20442;-45
2021/12/14 06:12:44;;;;;;;49.50;31.00;;;;;;;7.55;20.27;102143.47;4995452;28;20430;-44
2021/12/14 06:15:18;;;;;;;50.73;30.50;;;;;;;7.55;20.30;102151.44;4995705;28;20500;-41
2021/12/14 06:17:46;;;;;;;54.80;30.90;;;;;;;7.52;19.63;102161.50;4995846;28;20430;-44
2021/12/14 06:20:18;;;;;;;54.00;30.67;;;;;;;7.51;18.86;102160.66;4995545;28;20465;-44
2021/12/14 06:22:48;;;;;;;42.07;28.13;;;;;;;7.53;19.50;102171.09;4995054;28;20453;-47
2021/12/14 06:25:20;;;;;;;53.27;28.50;;;;;;;7.54;19.45;102168.31;4995846;28;20422;-47
2021/12/14 06:27:50;;;;;;;49.03;27.87;;;;;;;7.55;19.71;102166.50;4995892;28;20943;-48
2021/12/14 06:30:20;;;;;;;47.67;28.47;;;;;;;7.54;20.21;102173.63;4995712;28;20450;-45
2021/12/14 06:32:55;;;;;;;48.03;28.67;;;;;;;7.53;19.92;102179.06;4994776;28;20536;-46
2021/12/14 06:35:28;;;;;;;46.27;28.23;;;;;;;7.56;20.48;102176.13;4995376;28;20973;-44
2021/12/14 06:38:23;;;;;;;46.00;27.87;;;;;;;7.55;21.28;102182.44;4995415;28;20426;-44
2021/12/14 06:40:57;;;;;;;40.70;28.00;;;;;;;7.52;20.91;102180.91;4989480;28;20446;-44
2021/12/14 06:43:28;;;;;;;40.47;25.47;;;;;;;7.55;20.71;102182.44;4994502;28;20461;-42
2021/12/14 06:45:58;;;;;;;42.10;26.93;;;;;;;7.56;21.40;102192.91;4995058;28;20938;-42
2021/12/14 06:48:30;;;;;;;48.33;28.00;;;;;;;7.54;21.58;102194.88;4995320;28;20423;-45
2021/12/14 06:51:02;;;;;;;33.43;23.17;;;;;;;7.58;22.04;102195.44;4994956;28;20974;-42
2021/12/14 06:53:32;;;;;;;37.47;26.00;;;;;;;7.59;22.39;102210.34;4994319;28;20488;-42
2021/12/14 06:56:04;;;;;;;51.57;26.93;;;;;;;7.59;22.16;102203.25;4994951;28;20430;-47
2021/12/14 06:58:38;;;;;;;46.63;26.93;;;;;;;7.60;22.48;102199.63;4994822;28;20449;-45
2021/12/14 07:01:10;;;;;;;50.00;27.87;;;;;;;7.61;22.98;102214.56;4994947;28;20457;-43
2021/12/14 07:03:42;;;;;;;44.20;27.13;;;;;;;7.66;23.11;102219.44;4994154;28;20465;-43
2021/12/14 07:06:14;;;;;;;53.27;29.20;;;;;;;7.66;23.27;102222.09;4994880;28;20434;-44
2021/12/14 07:08:41;;;;;;;55.37;26.70;;;;;;;7.66;23.47;102230.06;4994698;28;20518;-43
2021/12/14 07:11:09;;;;;;;29.77;23.30;;;;;;;7.68;22.62;102233.41;5017607;23;20839;-41
2021/12/14 07:13:41;;;;;;;44.10;24.97;;;;;;;7.70;22.47;102240.28;4985791;28;20489;-41
2021/12/14 07:16:21;;;;;;;33.77;23.93;;;;;;;7.73;22.34;102239.16;4994740;28;20430;-41
2021/12/14 07:18:54;;;;;;;40.87;25.40;;;;;;;7.75;21.75;102240.69;4994520;28;20466;-40
2021/12/14 07:21:39;;;;;;;33.80;22.93;;;;;;;7.76;22.62;102249.50;4994312;28;20816;-43
2021/12/14 07:24:35;;;;;;;42.77;22.90;;;;;;;7.74;23.85;102257.59;4993828;28;20575;-42
2021/12/14 07:27:22;;;;;;;31.63;20.97;;;;;;;7.71;26.71;102255.22;4939391;28;20441;-41
2021/12/14 07:29:53;;;;;;;19.77;15.20;;;;;;;7.58;29.41;102256.50;4994208;28;20438;-41
2021/12/14 07:32:41;;;;;;;24.57;15.70;;;;;;;7.50;28.10;102266.94;4994416;28;20443;-41
2021/12/14 07:35:20;;;;;;;27.57;17.70;;;;;;;7.45;28.23;102263.88;4993670;28;20485;-41
2021/12/14 07:37:49;;;;;;;28.53;17.10;;;;;;;7.37;29.29;102272.56;4994179;28;20430;-41
2021/12/14 07:40:17;;;;;;;26.10;17.83;;;;;;;7.35;25.08;102271.84;4972438;28;20439;-42
2021/12/14 07:42:45;;;;;;;29.87;19.00;;;;;;;7.30;21.77;102278.53;4974058;28;20453;-41
2021/12/14 07:45:24;;;;;;;31.43;19.67;;;;;;;7.30;21.37;102281.19;4974659;28;20435;-42
2021/12/14 07:47:52;;;;;;;31.87;20.57;;;;;;;7.29;19.06;102284.84;4974619;28;20808;-41
2021/12/14 07:50:20;;;;;;;25.70;17.17;;;;;;;7.20;20.57;102287.31;4974519;28;20431;-42
2021/12/14 07:52:48;;;;;;;21.30;15.00;;;;;;;7.19;17.17;102279.50;4973478;28;20455;-42
2021/12/14 07:55:19;;;;;;;22.33;15.33;;;;;;;7.21;16.05;102282.84;4974245;28;20481;-41
2021/12/14 07:57:49;;;;;;;16.17;14.03;;;;;;;7.22;18.97;102280.09;4974549;28;20431;-41
2021/12/14 08:00:21;;;;;;;18.37;13.93;;;;;;;7.26;21.15;102282.47;4974289;28;20427;-41
2021/12/14 08:02:52;;;;;;;15.63;14.10;;;;;;;7.30;23.13;102276.72;4973481;28;20451;-41
2021/12/14 08:05:23;;;;;;;22.43;14.40;;;;;;;7.27;27.61;102276.16;4974048;28;20478;-41
2021/12/14 08:07:57;;;;;;;18.53;13.00;;;;;;;7.22;32.12;102284.53;4974316;28;20435;-42
2021/12/14 08:10:30;;;;;;;14.63;12.93;;;;;;;7.20;34.68;102287.31;4974072;28;20419;-41
2021/12/14 08:13:07;;;;;;;12.73;11.63;;;;;;;7.15;37.91;102297.50;4973288;28;20458;-41
2021/12/14 08:15:40;;;;;;;14.37;12.10;;;;;;;7.10;38.15;102291.78;4973467;28;20577;-42
2021/12/14 08:18:11;;;;;;;13.00;10.37;;;;;;;7.09;39.18;102303.38;4974248;28;20907;-41
2021/12/14 08:20:42;;;;;;;15.50;12.33;;;;;;;7.05;41.24;102303.75;4973833;28;20800;-41
2021/12/14 08:23:16;;;;;;;13.00;11.10;;;;;;;7.05;39.83;102309.91;4973265;28;20467;-40
2021/12/14 08:25:43;;;;;;;14.23;11.87;;;;;;;7.05;42.10;102317.88;4973814;28;20454;-43
2021/12/14 08:28:13;;;;;;;11.77;10.43;;;;;;;7.00;45.03;102314.78;4973662;28;20469;-41
2021/12/14 08:30:54;;;;;;;11.10;10.00;;;;;;;7.06;43.38;102327.50;4973869;28;20852;-41
2021/12/14 08:33:24;;;;;;;10.70;9.70;;;;;;;7.09;41.71;102324.59;4973021;28;20995;-42
2021/12/14 08:35:52;;;;;;;9.70;8.30;;;;;;;7.12;40.98;102316.34;4973689;28;21161;-41
2021/12/14 08:38:20;;;;;;;11.17;9.97;;;;;;;7.20;39.89;102311.19;4973527;28;20441;-41
2021/12/14 08:40:51;;;;;;;11.10;9.53;;;;;;;7.28;40.63;102320.31;4973231;28;20438;-41
2021/12/14 08:43:25;;;;;;;11.70;8.90;;;;;;;7.29;44.44;102314.84;4972821;28;20474;-42
2021/12/14 08:45:58;;;;;;;10.30;8.60;;;;;;;7.32;44.92;102311.09;4973660;28;20769;-41
2021/12/14 08:48:30;;;;;;;8.47;7.63;;;;;;;7.33;47.12;102308.28;4973533;28;20436;-41
2021/12/14 08:51:01;;;;;;;8.20;7.37;;;;;;;7.37;48.33;102322.13;4973317;28;20448;-41
2021/12/14 08:53:31;;;;;;;8.10;7.40;;;;;;;7.36;50.72;102317.78;4972842;28;20485;-41
2021/12/14 08:56:01;;;;;;;8.33;7.53;;;;;;;7.36;55.23;102329.25;4973471;28;20846;-41
2021/12/14 08:58:29;;;;;;;8.53;7.73;;;;;;;7.38;58.14;102331.78;4973261;28;20449;-41
2021/12/14 09:01:06;;;;;;;8.70;7.70;;;;;;;7.40;61.69;102322.69;4973324;28;20469;-42
2021/12/14 09:03:44;;;;;;;8.37;7.57;;;;;;;7.41;62.24;102329.66;4972470;28;20565;-42
2021/12/14 09:06:14;;;;;;;8.07;7.00;;;;;;;7.44;64.26;102336.50;4973487;28;20438;-41
2021/12/14 09:08:45;;;;;;;8.17;7.10;;;;;;;7.46;63.98;102347.84;4973372;28;20435;-41
2021/12/14 09:11:15;;;;;;;7.67;7.07;;;;;;;7.48;64.52;102348.53;4973082;28;20474;-41
2021/12/14 09:13:44;;;;;;;7.97;7.37;;;;;;;7.48;66.26;102354.69;4972416;28;20463;-42
2021/12/14 09:16:17;;;;;;;8.60;7.83;;;;;;;7.54;65.04;102361.28;4973046;28;20484;-40
2021/12/14 09:18:48;;;;;;;8.10;7.50;;;;;;;7.60;65.07;102358.06;4973368;28;20431;-41
2021/12/14 09:21:21;;;;;;;7.83;7.13;;;;;;;7.68;63.56;102363.50;4973070;28;20466;-42
2021/12/14 09:23:52;;;;;;;8.00;7.50;;;;;;;7.72;64.04;102367.59;4972446;28;20498;-41
2021/12/14 09:26:31;;;;;;;8.30;7.50;;;;;;;7.74;65.70;102377.09;4972911;28;20521;-44
2021/12/14 09:28:59;;;;;;;8.03;7.50;;;;;;;7.79;65.71;102382.00;4975449;28;20449;-41
2021/12/14 09:31:36;;;;;;;8.83;8.03;;;;;;;7.86;64.48;102384.91;4976914;28;20455;-41
2021/12/14 09:34:05;;;;;;;7.93;7.33;;;;;;;7.92;64.64;102387.00;4976390;28;20478;-43
2021/12/14 09:36:34;;;;;;;7.40;6.90;;;;;;;7.95;66.30;102387.56;4976903;28;20489;-41
2021/12/14 09:39:08;;;;;;;8.50;7.70;;;;;;;7.99;66.76;102386.31;4976680;28;20818;-41
2021/12/14 09:41:36;;;;;;;8.87;8.07;;;;;;;7.98;70.61;102391.78;4969430;28;20454;-42
2021/12/14 09:44:08;;;;;;;6.80;6.37;;;;;;;7.98;70.81;102383.78;4976256;28;20466;-42
2021/12/14 09:46:38;;;;;;;7.13;6.63;;;;;;;7.99;70.42;102369.53;4976846;28;20438;-41
2021/12/14 09:49:08;;;;;;;7.43;6.73;;;;;;;8.01;70.96;102380.88;4976721;28;20439;-41
2021/12/14 09:51:41;;;;;;;6.60;6.10;;;;;;;7.99;73.04;102380.16;4976477;28;20455;-42
2021/12/14 09:54:13;;;;;;;6.80;6.40;;;;;;;7.99;73.12;102378.34;4976126;28;20462;-41
2021/12/14 09:56:46;;;;;;;6.60;6.17;;;;;;;8.01;72.06;102368.41;4976410;28;21015;-41
2021/12/14 09:59:18;;;;;;;7.23;6.80;;;;;;;8.03;72.16;102381.59;4976470;28;20446;-42
2021/12/14 10:01:53;;;;;;;7.50;7.00;;;;;;;8.04;72.50;102369.94;4976300;28;20447;-41
2021/12/14 10:04:24;;;;;;;6.00;5.80;;;;;;;8.09;72.15;102378.38;4975941;28;20507;-41
2021/12/14 10:06:53;;;;;;;6.20;5.80;;;;;;;8.11;72.36;102381.72;4976529;28;21221;-41
2021/12/14 10:09:25;;;;;;;5.77;5.43;;;;;;;8.17;71.62;102374.03;4976554;28;20937;-41
2021/12/14 10:12:16;;;;;;;5.80;5.40;;;;;;;8.18;73.48;102374.88;4976037;28;20488;-42
2021/12/14 10:14:47;;;;;;;6.40;5.97;;;;;;;8.22;73.37;102378.91;4975591;28;20456;-41
2021/12/14 10:17:18;;;;;;;6.33;5.93;;;;;;;8.26;73.38;102374.97;4976244;28;20486;-41
2021/12/14 10:19:47;;;;;;;5.67;5.30;;;;;;;8.27;76.04;102374.03;4976112;28;20439;-43
2021/12/14 10:22:21;;;;;;;5.50;5.10;;;;;;;8.34;74.79;102381.28;4976036;28;20459;-41
2021/12/14 10:24:50;;;;;;;5.20;4.73;;;;;;;8.36;76.27;102385.66;4975658;28;20463;-41
2021/12/14 10:27:21;;;;;;;6.30;5.80;;;;;;;8.33;79.12;102400.06;4975884;28;20435;-41
2021/12/14 10:29:49;;;;;;;5.37;5.00;;;;;;;8.31;79.72;102408.16;4975971;28;20439;-41
2021/12/14 10:32:22;;;;;;;5.30;5.10;;;;;;;8.24;83.99;102417.63;4975730;28;20453;-41
2021/12/14 10:34:53;;;;;;;5.50;5.20;;;;;;;8.21;83.64;102411.78;4975269;28;20474;-41
2021/12/14 10:37:35;;;;;;;5.73;5.33;;;;;;;8.14;84.34;102411.50;4975669;28;20471;-42
2021/12/14 10:43:06;;;;;;;4.33;4.13;;;;;;;8.23;81.53;102412.47;4955633;28;20452;-41
2021/12/14 10:45:34;;;;;;;5.00;4.80;;;;;;;8.20;83.86;102410.94;4956389;29;20806;-41
2021/12/14 10:48:04;;;;;;;5.17;4.97;;;;;;;8.18;85.16;102398.78;4956510;29;20446;-41
2021/12/14 10:50:36;;;;;;;5.63;4.80;;;;;;;8.23;83.60;102405.34;4956373;29;20443;-41
2021/12/14 10:53:06;;;;;;;4.40;4.20;;;;;;;8.28;83.32;102396.97;4955681;28;20460;-43
2021/12/14 10:55:38;;;;;;;8.57;5.23;;;;;;;8.24;85.49;102398.22;4956204;29;20436;-42
2021/12/14 10:58:08;;;;;;;5.30;4.90;;;;;;;8.27;85.64;102403.25;4956081;29;20956;-40
2021/12/14 11:00:41;;;;;;;5.40;5.07;;;;;;;8.26;86.24;102412.19;4956266;29;20436;-41
2021/12/14 11:03:13;;;;;;;5.63;5.10;;;;;;;8.22;86.75;102408.13;4955422;28;20472;-42
2021/12/14 11:05:45;;;;;;;5.50;5.20;;;;;;;8.10;89.99;102410.09;4956154;29;20431;-42
2021/12/14 11:08:33;;;;;;;4.83;4.30;;;;;;;8.14;89.44;102426.59;4956030;29;20435;-41
2021/12/14 11:11:03;;;;;;;5.10;4.70;;;;;;;8.13;88.58;102428.41;4955677;29;20474;-41
2021/12/14 11:13:39;;;;;;;4.23;4.03;;;;;;;8.10;87.83;102428.69;4955329;28;20491;-41
2021/12/14 11:16:14;;;;;;;5.60;5.30;;;;;;;8.09;87.71;102426.19;4955849;29;20482;-45
2021/12/14 11:18:46;;;;;;;4.80;4.40;;;;;;;8.10;86.78;102427.84;4955875;29;20815;-42
2021/12/14 11:21:16;;;;;;;4.17;3.97;;;;;;;8.11;86.27;102430.38;4955742;29;20467;-42
2021/12/14 11:23:47;;;;;;;4.43;3.93;;;;;;;8.15;85.86;102425.63;4955018;28;20472;-42
2021/12/14 11:26:20;;;;;;;4.37;4.17;;;;;;;8.20;84.84;102421.56;4955895;29;20428;-41
2021/12/14 11:28:50;;;;;;;4.20;4.00;;;;;;;8.24;85.18;102416.81;4955791;29;20809;-41
2021/12/14 11:31:23;;;;;;;5.53;4.70;;;;;;;8.22;85.83;102414.28;4955558;29;20452;-44
2021/12/14 11:33:56;;;;;;;4.30;4.10;;;;;;;8.21;85.93;102412.59;4954840;28;20464;-41
2021/12/14 11:36:31;;;;;;;4.40;4.20;;;;;;;8.15;88.09;102421.13;4955343;29;20467;-42
2021/12/14 11:39:04;;;;;;;3.63;3.43;;;;;;;8.09;88.48;102426.19;4955430;29;20816;-43
2021/12/14 11:41:37;;;;;;;4.00;3.80;;;;;;;8.07;88.22;102426.31;4955373;29;20463;-42
2021/12/14 11:44:11;;;;;;;4.03;3.70;;;;;;;8.04;88.55;102423.94;4954518;28;20474;-43
2021/12/14 11:46:56;;;;;;;4.43;3.70;;;;;;;8.01;89.56;102426.88;4955533;29;20554;-42
2021/12/14 11:49:40;;;;;;;3.57;3.37;;;;;;;7.99;89.88;102422.69;4955389;29;20444;-41
2021/12/14 11:52:08;;;;;;;3.23;3.07;;;;;;;8.08;88.52;102428.00;4954447;28;20875;-41
2021/12/14 11:54:42;;;;;;;3.67;3.37;;;;;;;8.12;88.73;102415.28;4954530;28;20512;-41
2021/12/14 11:57:11;;;;;;;3.40;3.20;;;;;;;8.13;88.90;102409.81;4955396;29;20479;-40
2021/12/14 11:59:39;;;;;;;3.47;3.37;;;;;;;8.18;88.52;102414.72;4955239;29;20446;-41
2021/12/14 12:02:08;;;;;;;4.73;4.33;;;;;;;8.19;89.18;102417.22;4954935;29;20463;-42